createdAt,value
2022-11-23T00:01:38.777Z,72.06924
2022-11-23T00:06:40.525Z,69.18319
2022-11-23T00:11:42.398Z,69.67173
2022-11-23T00:16:44.165Z,70.10913
2022-11-23T00:21:46.039Z,68.86268
2022-11-23T00:26:47.885Z,70.15965
2022-11-23T00:31:49.728Z,70.71787
2022-11-23T00:36:51.720Z,68.67328
2022-11-23T00:41:53.438Z,72.61391
2022-11-23T00:46:55.166Z,71.68465
2022-11-23T00:51:57.301Z,69.83399
2022-11-23T00:56:59.123Z,70.6904
2022-11-23T01:02:01.040Z,70.66006
2022-11-23T01:07:02.976Z,68.19267
2022-11-23T01:12:04.665Z,68.18595
2022-11-23T01:17:06.476Z,69.35296
2022-11-23T01:22:08.225Z,69.29761
2022-11-23T01:27:09.925Z,71.88887
2022-11-23T01:32:11.595Z,70.56929
2022-11-23T01:37:13.409Z,71.47764
2022-11-23T01:42:17.727Z,70.59098
2022-11-23T01:47:20.107Z,69.91733
2022-11-23T01:52:21.888Z,71.90018
2022-11-23T01:57:23.550Z,70.36837
2022-11-23T02:02:25.341Z,71.22742
2022-11-23T02:07:27.219Z,74.01076
2022-11-23T02:12:28.993Z,73.76955
2022-11-23T02:17:30.743Z,71.77024
2022-11-23T02:22:33.148Z,81.15398
2022-11-23T02:27:34.908Z,74.57584
2022-11-23T02:32:36.664Z,72.72749
2022-11-23T02:37:38.532Z,72.30128
2022-11-23T02:42:40.460Z,72.38298
2022-11-23T02:47:42.208Z,72.76391
2022-11-23T02:52:44.327Z,72.10049
2022-11-23T02:57:46.190Z,68.78059
2022-11-23T03:02:47.946Z,70.09742
2022-11-23T03:07:49.805Z,72.57771
2022-11-23T03:12:51.828Z,71.66836
2022-11-23T03:17:53.611Z,71.31483
2022-11-23T03:22:55.504Z,70.97963
2022-11-23T03:27:57.325Z,73.09501
2022-11-23T03:32:59.039Z,71.85332
2022-11-23T03:38:00.911Z,71.24204
2022-11-23T03:43:02.701Z,72.43233
2022-11-23T03:48:04.480Z,72.62247
2022-11-23T03:53:06.376Z,71.8945
2022-11-23T03:58:08.234Z,72.89577
2022-11-23T04:03:12.480Z,73.00403
2022-11-23T04:08:14.460Z,72.87163
2022-11-23T04:13:16.290Z,71.9353
2022-11-23T04:18:18.299Z,72.13049
2022-11-23T04:23:20.153Z,72.67808
2022-11-23T04:28:22.211Z,69.56005
2022-11-23T04:33:24.136Z,70.24428
2022-11-23T04:38:26.424Z,70.37651
2022-11-23T04:43:28.195Z,70.53998
2022-11-23T04:48:29.937Z,70.6301
2022-11-23T04:53:31.841Z,69.71805
2022-11-23T04:58:34.748Z,71.10216
2022-11-23T05:03:36.601Z,69.39727
2022-11-23T05:08:38.485Z,70.38415
2022-11-23T05:13:40.464Z,71.48195
2022-11-23T05:18:42.135Z,71.54921
2022-11-23T05:23:44.157Z,73.19421
2022-11-23T05:28:45.895Z,71.73418
2022-11-23T05:33:47.653Z,71.46121
2022-11-23T05:38:49.859Z,72.32279
2022-11-23T05:43:54.464Z,70.71656
2022-11-23T05:48:56.276Z,70.58975
2022-11-23T05:53:58.468Z,73.17754
2022-11-23T05:59:00.336Z,72.91255
2022-11-23T06:04:02.331Z,71.12951
2022-11-23T06:09:04.152Z,72.16936
2022-11-23T06:14:08.846Z,72.48242
2022-11-23T06:19:14.764Z,75.42854
2022-11-23T06:24:17.151Z,75.09951
2022-11-23T06:29:19.265Z,70.68635
2022-11-23T06:34:20.959Z,70.22613
2022-11-23T06:39:22.996Z,71.1399
2022-11-23T06:44:25.676Z,72.45748
2022-11-23T06:49:27.327Z,72.22025
2022-11-23T06:54:29.055Z,74.46361
2022-11-23T06:59:31.487Z,74.31715
2022-11-23T07:04:33.249Z,76.02698
2022-11-23T07:09:35.231Z,77.03038
2022-11-23T07:14:37.313Z,79.33547
2022-11-23T07:19:39.699Z,81.84682
2022-11-23T07:24:46.410Z,79.83533
2022-11-23T07:29:48.533Z,77.84323
2022-11-23T07:34:50.419Z,73.45976
2022-11-23T07:39:57.243Z,75.20695
2022-11-23T07:44:59.668Z,76.6653
2022-11-23T07:50:01.368Z,76.80126
2022-11-23T07:55:03.230Z,72.47261
2022-11-23T08:00:04.866Z,73.19744
2022-11-23T08:05:09.985Z,74.09127
2022-11-23T08:10:15.044Z,74.90551
2022-11-23T08:15:16.698Z,78.45136
2022-11-23T08:20:18.384Z,78.54843
2022-11-23T08:25:20.155Z,81.82834
2022-11-23T08:30:21.831Z,80.68783
2022-11-23T08:35:23.552Z,75.12369
2022-11-23T08:40:25.974Z,71.98203
2022-11-23T08:45:27.840Z,72.26952
2022-11-23T08:50:29.488Z,71.54512
2022-11-23T08:55:31.561Z,74.42539
2022-11-23T09:00:33.195Z,72.50095
2022-11-23T09:05:34.866Z,73.29917
2022-11-23T09:10:36.569Z,72.81368
2022-11-23T09:15:38.286Z,71.26078
2022-11-23T09:20:40.337Z,73.71347
2022-11-23T09:25:42.185Z,76.10318
2022-11-23T09:30:44.000Z,76.06919
2022-11-23T09:35:45.827Z,78.52357
2022-11-23T09:40:47.852Z,75.36403
2022-11-23T09:45:49.639Z,75.11214
2022-11-23T09:50:55.101Z,77.69022
2022-11-23T09:55:57.090Z,73.96005
2022-11-23T10:00:58.943Z,71.86522
2022-11-23T10:06:00.803Z,70.06345
2022-11-23T10:11:02.877Z,72.66771
2022-11-23T10:16:06.097Z,74.17502
2022-11-23T10:21:07.874Z,72.79341
2022-11-23T10:26:09.720Z,73.83449
2022-11-23T10:31:11.865Z,73.60369
2022-11-23T10:36:13.593Z,75.12684
2022-11-23T10:41:15.375Z,74.24727
2022-11-23T10:46:17.118Z,72.44668
2022-11-23T10:51:18.853Z,72.44359
2022-11-23T10:56:20.595Z,70.78645
2022-11-23T11:01:22.372Z,71.982
2022-11-23T11:06:24.039Z,71.02876
2022-11-23T11:11:25.813Z,71.86472
2022-11-23T11:16:27.579Z,70.89472
2022-11-23T11:21:29.331Z,71.73222
2022-11-23T11:26:31.372Z,75.39193
2022-11-23T11:31:33.247Z,74.65046
2022-11-23T11:36:35.020Z,73.45581
2022-11-23T11:41:37.118Z,72.44454
2022-11-23T11:46:38.906Z,72.79711
2022-11-23T11:51:40.627Z,76.16668
2022-11-23T11:56:42.626Z,74.46685
2022-11-23T12:01:44.391Z,74.37638
2022-11-23T12:06:46.066Z,77.12467
2022-11-23T12:11:48.025Z,72.45468
2022-11-23T12:17:10.243Z,74.91558
2022-11-23T12:22:26.864Z,75.67072
2022-11-23T12:27:28.707Z,76.11345
2022-11-23T12:32:30.461Z,72.27463
2022-11-23T12:37:32.112Z,70.61385
2022-11-23T12:42:34.019Z,71.14392
2022-11-23T12:47:35.729Z,71.82773
2022-11-23T12:52:37.926Z,74.16503
2022-11-23T12:57:39.837Z,72.82414
2022-11-23T13:02:41.736Z,73.15491
2022-11-23T13:07:47.737Z,76.47468
2022-11-23T13:12:51.107Z,77.16424
2022-11-23T13:17:53.185Z,78.70405
2022-11-23T13:22:54.960Z,80.64242
2022-11-23T13:27:56.748Z,80.23894
2022-11-23T13:32:58.403Z,77.93315
2022-11-23T13:38:00.307Z,75.69077
2022-11-23T13:43:02.381Z,78.85211
2022-11-23T13:48:04.122Z,75.29685
2022-11-23T13:53:05.976Z,76.09707
2022-11-23T13:58:07.704Z,75.94686
2022-11-23T14:03:09.363Z,76.55016
2022-11-23T14:08:11.201Z,73.60535
2022-11-23T14:13:13.336Z,74.69301
2022-11-23T14:18:15.110Z,75.82999
2022-11-23T14:23:16.895Z,73.11442
2022-11-23T14:28:18.900Z,74.1839
2022-11-23T14:33:20.551Z,75.01183
2022-11-23T14:38:22.241Z,76.41955
2022-11-23T14:43:24.039Z,78.49869
2022-11-23T14:48:25.736Z,77.98333
2022-11-23T14:53:27.440Z,75.83654
2022-11-23T14:58:29.181Z,76.86586
2022-11-23T15:03:50.803Z,76.97185
2022-11-23T15:08:52.916Z,75.33109
2022-11-23T15:13:54.673Z,74.39341
2022-11-23T15:18:56.353Z,74.86531
2022-11-23T15:23:58.123Z,74.32635
2022-11-23T15:28:59.856Z,71.68265
2022-11-23T15:34:01.679Z,74.25146
2022-11-23T15:39:03.350Z,76.21253
2022-11-23T15:44:07.488Z,76.38598
2022-11-23T15:49:09.133Z,76.28132
2022-11-23T15:54:10.815Z,74.68117
2022-11-23T15:59:12.706Z,73.97818
2022-11-23T16:04:14.385Z,76.51154
2022-11-23T16:09:49.262Z,76.10879
2022-11-23T16:14:52.843Z,73.83877
2022-11-23T16:19:54.577Z,73.1918
2022-11-23T16:24:56.202Z,74.52272
2022-11-23T16:30:02.810Z,72.35357
2022-11-23T16:35:05.182Z,78.1995
2022-11-23T16:40:06.832Z,80.53215
2022-11-23T16:45:08.614Z,81.49213
2022-11-23T16:50:10.234Z,81.02064
2022-11-23T16:55:11.828Z,79.97705
2022-11-23T17:00:13.741Z,79.31738
2022-11-23T17:05:15.445Z,80.00486
2022-11-23T17:10:17.202Z,78.88913
2022-11-23T17:15:20.541Z,76.66867
2022-11-23T17:20:22.414Z,76.24614
2022-11-23T17:25:24.117Z,76.95614
2022-11-23T17:30:25.851Z,73.51302
2022-11-23T17:35:27.529Z,75.59182
2022-11-23T17:40:29.422Z,74.99847
2022-11-23T17:45:31.407Z,77.31424
2022-11-23T17:50:33.074Z,76.95755
2022-11-23T17:55:34.721Z,76.14374
2022-11-23T18:00:36.333Z,74.61645
2022-11-23T18:05:38.024Z,75.47456
2022-11-23T18:10:39.865Z,73.40501
2022-11-23T18:15:41.553Z,68.73018
2022-11-23T18:20:43.254Z,74.17208
2022-11-23T18:25:45.064Z,72.68482
2022-11-23T18:30:46.865Z,71.42115
2022-11-23T18:35:48.830Z,69.62159
2022-11-23T18:40:50.614Z,71.95192
2022-11-23T18:45:52.255Z,70.22828
2022-11-23T18:50:54.005Z,70.64542
2022-11-23T18:56:00.299Z,68.79139
2022-11-23T19:01:03.344Z,67.16752
2022-11-23T19:06:05.136Z,66.67993
2022-11-23T19:11:06.792Z,65.50408
2022-11-23T19:16:08.689Z,66.99799
2022-11-23T19:21:10.440Z,66.03539
2022-11-23T19:26:12.093Z,64.45042
2022-11-23T19:31:13.934Z,66.40398
2022-11-23T19:36:15.859Z,63.81834
2022-11-23T19:41:17.604Z,64.59891
2022-11-23T19:46:19.347Z,67.13021
2022-11-23T19:51:21.017Z,64.14298
2022-11-23T19:56:22.745Z,64.32652
2022-11-23T20:01:24.490Z,63.79671
2022-11-23T20:06:26.274Z,67.55419
2022-11-23T20:11:27.921Z,68.59095
2022-11-23T20:16:29.660Z,68.32658
2022-11-23T20:21:31.496Z,65.06607
2022-11-23T20:26:33.423Z,65.6576
2022-11-23T20:31:35.135Z,62.45507
2022-11-23T20:36:36.807Z,66.03615
2022-11-23T20:41:38.527Z,68.3026
2022-11-23T20:47:02.787Z,67.86407
2022-11-23T20:52:05.107Z,69.64866
2022-11-23T20:57:06.740Z,69.24967
2022-11-23T21:02:08.360Z,70.36214
2022-11-23T21:07:10.175Z,68.11736
2022-11-23T21:12:11.865Z,69.26336
2022-11-23T21:17:13.563Z,67.79299
2022-11-23T21:22:15.180Z,64.06258
2022-11-23T21:27:16.808Z,63.05878
2022-11-23T21:32:18.501Z,66.46592
2022-11-23T21:37:20.174Z,67.8338
2022-11-23T21:42:21.803Z,67.40053
2022-11-23T21:47:23.478Z,67.13388
2022-11-23T21:52:25.132Z,71.33156
2022-11-23T21:57:26.756Z,69.4003
2022-11-23T22:02:28.545Z,69.25128
2022-11-23T22:07:30.288Z,69.17811
2022-11-23T22:12:31.931Z,69.35459
2022-11-23T22:17:33.582Z,69.40412
2022-11-23T22:22:35.199Z,69.08098
2022-11-23T22:27:36.827Z,66.34375
2022-11-23T22:32:38.450Z,67.40476
2022-11-23T22:37:40.088Z,67.98462
2022-11-23T22:42:41.738Z,68.23635
2022-11-23T22:47:43.392Z,69.55173
2022-11-23T22:52:44.996Z,67.57314
2022-11-23T22:57:46.628Z,65.93706
2022-11-23T23:02:48.562Z,67.75736
2022-11-23T23:07:50.397Z,68.49976
2022-11-23T23:12:52.212Z,71.77323
2022-11-23T23:17:53.889Z,67.87292
2022-11-23T23:22:56.197Z,69.63603
2022-11-23T23:27:58.020Z,73.14777
2022-11-23T23:32:59.845Z,70.64266
2022-11-23T23:38:01.609Z,71.94515
2022-11-23T23:43:03.305Z,70.37962
2022-11-23T23:48:04.982Z,68.1477
2022-11-23T23:53:06.669Z,68.03569
2022-11-23T23:58:08.298Z,68.16202
